Terminal Aerodrome Forecast
Issued by NWS

Home | Current Version | Previous Version | Graphics & Text | Print | Product List | Glossary On
Versions: 1 2 3 4 5 6 7 8 9 10 11 12 13 14 15 16 17 18
000
FTUS45 KGGW 230534
TAFOLF
TAF
KOLF 230534Z 2306/2406 08016KT P6SM VCSH SCT040 OVC060
     FM230800 08014G22KT P6SM OVC025
     FM232300 09015G23KT P6SM VCSH OVC040
     FM240200 10012KT P6SM VCSH OVC030=

USA.gov is the U.S. government's official web portal to all federal, state and local government web resources and services.